Time;durP1;ratioP1;P1;durP2;ratioP2;P2;SDS_P1;SDS_P2;PMS_P1;PMS_P2;Temp;Humidity;BMP_temperature;BMP_pressure;BME280_temperature;BME280_humidity;BME280_pressure;Samples;Min_cycle;Max_cycle;Signal;HPM_P1;HPM_P2
2023/04/10 00:01:44;;;;;;;29.08;11.73;;;;;;;-0.66;100.00;96162.72;4994462;28;20088;-73
2023/04/10 00:04:10;;;;;;;35.60;12.52;;;;;;;-0.70;100.00;96166.66;4979567;28;20042;-74
2023/04/10 00:06:35;;;;;;;32.42;12.23;;;;;;;-0.63;100.00;96164.13;4995317;28;20043;-74
2023/04/10 00:09:01;;;;;;;33.65;11.98;;;;;;;-0.63;100.00;96170.09;4991806;28;20049;-74
2023/04/10 00:11:26;;;;;;;30.63;11.57;;;;;;;-0.68;100.00;96172.44;4996434;28;20048;-73
2023/04/10 00:13:53;;;;;;;31.85;12.60;;;;;;;-0.79;100.00;96165.13;4992062;28;20125;-74
2023/04/10 00:16:18;;;;;;;35.70;13.57;;;;;;;-0.94;100.00;96163.38;5001868;28;20418;-73
2023/04/10 00:18:44;;;;;;;37.10;12.63;;;;;;;-0.97;100.00;96158.56;5001984;28;20100;-74
2023/04/10 00:21:10;;;;;;;31.60;13.27;;;;;;;-1.00;100.00;96158.94;4995619;28;20046;-73
2023/04/10 00:23:36;;;;;;;37.78;14.05;;;;;;;-1.01;100.00;96161.72;4997199;28;20098;-73
2023/04/10 00:26:02;;;;;;;32.95;12.38;;;;;;;-1.00;100.00;96158.16;4991372;28;20051;-74
2023/04/10 00:28:28;;;;;;;41.33;11.82;;;;;;;-1.00;100.00;96153.78;4981594;28;20039;-73
2023/04/10 00:30:53;;;;;;;30.17;11.73;;;;;;;-1.12;100.00;96150.84;5001441;28;20544;-74
2023/04/10 00:33:19;;;;;;;31.13;12.90;;;;;;;-1.14;100.00;96144.25;4990826;28;20496;-73
2023/04/10 00:35:45;;;;;;;31.70;12.07;;;;;;;-1.17;100.00;96148.00;4996768;28;20042;-74
2023/04/10 00:38:11;;;;;;;30.02;12.50;;;;;;;-1.20;100.00;96137.25;4992146;28;20612;-73
2023/04/10 00:40:36;;;;;;;30.00;12.13;;;;;;;-1.27;100.00;96137.94;4999219;28;20042;-73
2023/04/10 00:43:02;;;;;;;35.13;12.52;;;;;;;-1.31;100.00;96135.88;4972503;28;20042;-73
2023/04/10 00:45:27;;;;;;;34.42;12.30;;;;;;;-1.31;100.00;96139.25;4994938;28;20034;-73
2023/04/10 00:47:54;;;;;;;31.52;12.00;;;;;;;-1.28;100.00;96138.94;5003115;28;20048;-74
2023/04/10 00:50:20;;;;;;;30.60;12.57;;;;;;;-1.24;100.00;96142.72;5001033;28;20117;-72
2023/04/10 00:52:47;;;;;;;34.20;13.05;;;;;;;-1.24;100.00;96127.25;4998517;28;20038;-73
2023/04/10 00:55:13;;;;;;;34.20;12.63;;;;;;;-1.25;100.00;96130.81;5003827;28;20064;-73
2023/04/10 00:57:44;;;;;;;30.77;12.32;;;;;;;-1.22;100.00;96130.47;4976612;28;20038;-73
2023/04/10 01:00:10;;;;;;;29.33;12.00;;;;;;;-1.29;100.00;96119.25;5013364;28;20433;-73
2023/04/10 01:02:36;;;;;;;31.60;11.20;;;;;;;-1.29;100.00;96132.16;4985185;28;20508;-75
2023/04/10 01:05:01;;;;;;;35.03;12.10;;;;;;;-1.34;100.00;96121.56;5010905;28;20042;-74
2023/04/10 01:07:43;;;;;;;32.70;12.07;;;;;;;-1.34;100.00;96126.72;5007008;28;20417;-74
2023/04/10 01:10:12;;;;;;;31.27;12.18;;;;;;;-1.38;100.00;96120.31;5006012;28;20038;-74
2023/04/10 01:13:04;;;;;;;33.17;12.30;;;;;;;-1.41;100.00;96118.09;4979698;28;20098;-74
2023/04/10 01:16:07;;;;;;;31.63;11.38;;;;;;;-1.41;100.00;96120.66;5010228;28;20044;-74
2023/04/10 01:18:40;;;;;;;28.15;12.00;;;;;;;-1.46;100.00;96128.16;4972832;28;20050;-74
2023/04/10 01:21:10;;;;;;;31.67;11.55;;;;;;;-1.49;100.00;96123.34;4997931;28;20524;-73
2023/04/10 01:23:41;;;;;;;33.75;12.00;;;;;;;-1.44;100.00;96126.19;5004159;28;20039;-74
2023/04/10 01:26:12;;;;;;;33.83;13.13;;;;;;;-1.59;100.00;96134.72;4996227;28;20041;-74
2023/04/10 01:28:53;;;;;;;34.28;12.38;;;;;;;-1.54;100.00;96131.63;5011483;28;20395;-74
2023/04/10 01:31:26;;;;;;;34.30;12.93;;;;;;;-1.62;100.00;96129.13;5000601;28;20065;-75
2023/04/10 01:34:00;;;;;;;27.58;10.70;;;;;;;-1.58;100.00;96131.19;5000993;28;20037;-74
2023/04/10 01:36:35;;;;;;;29.20;12.05;;;;;;;-1.59;100.00;96128.78;4989175;28;20042;-73
2023/04/10 01:39:03;;;;;;;30.63;11.30;;;;;;;-1.57;100.00;96122.47;4997863;28;20052;-74
2023/04/10 01:41:31;;;;;;;28.70;11.48;;;;;;;-1.61;100.00;96118.63;5004160;28;20035;-74
2023/04/10 01:44:00;;;;;;;34.50;12.02;;;;;;;-1.67;100.00;96116.75;5005690;28;20038;-74
2023/04/10 01:46:26;;;;;;;32.28;12.05;;;;;;;-1.62;100.00;96119.59;4998795;28;20070;-75
2023/04/10 01:48:54;;;;;;;30.58;11.88;;;;;;;-1.72;100.00;96108.75;5006802;28;20045;-74
2023/04/10 01:51:21;;;;;;;31.38;11.23;;;;;;;-1.73;100.00;96112.28;4994730;28;20046;-75
2023/04/10 01:53:47;;;;;;;33.88;11.73;;;;;;;-1.72;100.00;96108.75;5005443;28;20046;-75
2023/04/10 01:56:14;;;;;;;35.63;12.55;;;;;;;-1.78;100.00;96105.09;5000656;28;20038;-74
2023/04/10 01:58:40;;;;;;;33.60;12.75;;;;;;;-1.74;100.00;96110.69;4992873;28;20622;-75
2023/04/10 02:01:06;;;;;;;28.15;11.55;;;;;;;-1.72;100.00;96105.34;5005035;28;20053;-74
2023/04/10 02:03:32;;;;;;;36.55;12.43;;;;;;;-1.69;100.00;96102.44;4985315;28;20042;-74
2023/04/10 02:06:09;;;;;;;30.20;12.88;;;;;;;-1.72;100.00;96102.75;5003865;28;20038;-74
2023/04/10 02:08:41;;;;;;;33.20;11.82;;;;;;;-1.73;100.00;96096.81;4987109;28;20038;-74
2023/04/10 02:11:14;;;;;;;30.88;12.52;;;;;;;-1.70;100.00;96106.78;5002494;28;20054;-74
2023/04/10 02:13:41;;;;;;;30.63;11.68;;;;;;;-1.68;100.00;96104.84;4996526;28;20038;-74
2023/04/10 02:16:08;;;;;;;28.85;10.23;;;;;;;-1.67;100.00;96097.88;5015394;28;20050;-74
2023/04/10 02:18:35;;;;;;;31.58;11.40;;;;;;;-1.67;100.00;96103.84;4995046;28;20113;-74
2023/04/10 02:21:02;;;;;;;30.92;12.00;;;;;;;-1.65;100.00;96101.91;5001124;28;20121;-75
2023/04/10 02:23:28;;;;;;;30.80;11.75;;;;;;;-1.69;100.00;96105.81;5010099;28;20042;-75
2023/04/10 02:25:55;;;;;;;27.30;11.25;;;;;;;-1.78;100.00;96112.00;4982273;28;20391;-74
2023/04/10 02:28:21;;;;;;;30.48;10.55;;;;;;;-1.81;100.00;96099.47;4999152;28;20049;-75
2023/04/10 02:30:47;;;;;;;27.35;10.77;;;;;;;-1.79;100.00;96097.53;4998326;28;20046;-74
2023/04/10 02:33:12;;;;;;;30.13;11.07;;;;;;;-1.75;100.00;96098.78;4980414;28;20133;-75
2023/04/10 02:35:38;;;;;;;27.05;11.23;;;;;;;-1.79;100.00;96097.53;5003166;28;20092;-74
2023/04/10 02:38:04;;;;;;;25.13;10.48;;;;;;;-1.83;100.00;96101.44;5007504;28;20065;-75
2023/04/10 02:40:29;;;;;;;28.75;11.45;;;;;;;-1.87;100.00;96103.56;5002274;28;20596;-74
2023/04/10 02:42:55;;;;;;;26.73;10.98;;;;;;;-1.85;100.00;96104.19;4999245;28;20055;-74
2023/04/10 02:45:20;;;;;;;27.60;10.80;;;;;;;-1.86;100.00;96112.13;4992718;28;20093;-74
2023/04/10 02:47:46;;;;;;;26.08;9.60;;;;;;;-1.94;100.00;96105.22;5001328;28;20038;-75
2023/04/10 02:50:12;;;;;;;27.30;10.32;;;;;;;-1.97;100.00;96106.41;4996447;28;20619;-74
2023/04/10 02:52:37;;;;;;;28.42;10.10;;;;;;;-1.97;100.00;96111.56;5002489;28;20050;-74
2023/04/10 02:55:03;;;;;;;25.50;10.15;;;;;;;-2.01;100.00;96110.31;4984407;28;20041;-74
2023/04/10 02:57:29;;;;;;;25.48;10.23;;;;;;;-2.00;100.00;96106.72;4995012;28;20096;-72
2023/04/10 02:59:55;;;;;;;26.27;10.73;;;;;;;-1.97;100.00;96109.00;4993877;28;20054;-74
2023/04/10 03:02:20;;;;;;;28.63;10.13;;;;;;;-2.03;100.00;96106.28;4988587;28;20045;-74
2023/04/10 03:04:46;;;;;;;24.52;9.82;;;;;;;-2.06;100.00;96112.59;5000594;28;20034;-73
2023/04/10 03:07:12;;;;;;;27.75;10.45;;;;;;;-2.05;100.00;96105.66;4998219;28;20053;-74
2023/04/10 03:09:37;;;;;;;23.73;8.98;;;;;;;-2.02;100.00;96098.38;5008102;28;20034;-74
2023/04/10 03:12:03;;;;;;;28.25;11.38;;;;;;;-2.09;100.00;96100.06;4992264;28;20117;-74
2023/04/10 03:14:28;;;;;;;28.33;10.50;;;;;;;-2.06;100.00;96097.13;4983458;28;20489;-74
2023/04/10 03:16:53;;;;;;;23.60;10.15;;;;;;;-2.08;100.00;96099.09;4992221;28;20042;-74
2023/04/10 03:19:19;;;;;;;21.63;10.00;;;;;;;-2.02;100.00;96103.53;5007156;28;20045;-74
2023/04/10 03:21:45;;;;;;;25.70;9.90;;;;;;;-2.22;100.00;96102.44;4979095;28;20476;-74
2023/04/10 03:24:11;;;;;;;26.02;10.32;;;;;;;-2.15;100.00;96103.34;4993394;28;20048;-74
2023/04/10 03:26:36;;;;;;;22.02;9.77;;;;;;;-2.11;100.00;96094.28;4995963;28;20034;-74
2023/04/10 03:29:02;;;;;;;21.92;9.02;;;;;;;-2.18;100.00;96099.34;4998710;28;20042;-73
2023/04/10 03:31:28;;;;;;;27.05;11.05;;;;;;;-2.19;100.00;96095.13;4997154;28;20120;-74
2023/04/10 03:33:54;;;;;;;25.23;9.52;;;;;;;-2.23;100.00;96091.31;5016833;28;20037;-74
2023/04/10 03:36:19;;;;;;;26.75;10.65;;;;;;;-2.17;100.00;96089.81;4977954;28;20039;-74
2023/04/10 03:38:45;;;;;;;28.33;9.77;;;;;;;-2.18;100.00;96088.22;5008866;28;20039;-74
2023/04/10 03:41:10;;;;;;;25.50;10.02;;;;;;;-2.24;100.00;96094.06;5005374;28;20034;-74
2023/04/10 03:43:36;;;;;;;22.75;9.13;;;;;;;-2.28;100.00;96098.78;5005800;28;20518;-73
2023/04/10 03:46:01;;;;;;;27.38;10.20;;;;;;;-2.30;100.00;96101.53;4998584;28;20120;-74
2023/04/10 03:48:29;;;;;;;25.20;9.95;;;;;;;-2.33;100.00;96101.88;4973064;28;20035;-74
2023/04/10 03:50:55;;;;;;;20.30;9.02;;;;;;;-2.36;100.00;96109.94;5004414;28;20045;-74
2023/04/10 03:53:20;;;;;;;22.65;9.50;;;;;;;-2.30;100.00;96106.69;4992453;28;20045;-73
2023/04/10 03:55:46;;;;;;;23.58;9.55;;;;;;;-2.35;100.00;96105.59;4994249;28;20034;-72
2023/04/10 03:58:12;;;;;;;23.05;9.30;;;;;;;-2.39;100.00;96106.91;4994432;28;20049;-73
2023/04/10 04:00:38;;;;;;;30.70;9.90;;;;;;;-2.34;100.00;96110.59;4996695;28;20478;-73
2023/04/10 04:03:04;;;;;;;25.95;8.88;;;;;;;-2.33;100.00;96106.22;5001732;28;21507;-72
2023/04/10 04:05:30;;;;;;;24.27;10.02;;;;;;;-2.35;100.00;96108.97;5002547;28;20042;-73
2023/04/10 04:07:56;;;;;;;23.73;9.43;;;;;;;-2.45;100.00;96109.19;4987564;28;20409;-73
2023/04/10 04:10:22;;;;;;;22.85;8.88;;;;;;;-2.38;100.00;96108.53;4978008;28;20053;-74
2023/04/10 04:12:48;;;;;;;26.75;9.70;;;;;;;-2.40;100.00;96100.94;5008576;28;20069;-74
2023/04/10 04:15:13;;;;;;;24.35;9.05;;;;;;;-2.46;100.00;96101.63;4984998;28;20049;-76
2023/04/10 04:17:39;;;;;;;22.80;8.63;;;;;;;-2.46;100.00;96102.47;4981996;28;20058;-74
2023/04/10 04:20:05;;;;;;;20.13;8.52;;;;;;;-2.47;100.00;96105.19;5002062;28;20046;-73
2023/04/10 04:22:31;;;;;;;25.05;9.32;;;;;;;-2.49;100.00;96102.00;4994437;28;20100;-73
2023/04/10 04:24:56;;;;;;;22.33;8.80;;;;;;;-2.35;100.00;96108.97;4990885;28;20038;-74
2023/04/10 04:27:22;;;;;;;25.60;9.00;;;;;;;-2.29;100.00;96108.28;5008057;28;20042;-74
2023/04/10 04:29:47;;;;;;;25.92;9.52;;;;;;;-2.38;100.00;96104.16;4993928;28;20450;-73
2023/04/10 04:32:13;;;;;;;23.80;9.70;;;;;;;-2.33;100.00;96101.88;5004558;28;20045;-73
2023/04/10 04:34:39;;;;;;;22.50;8.30;;;;;;;-2.25;100.00;96110.53;4981111;28;20049;-73
2023/04/10 04:37:04;;;;;;;24.88;8.40;;;;;;;-2.17;100.00;96110.44;5001237;28;20042;-74
2023/04/10 04:39:30;;;;;;;25.92;10.55;;;;;;;-2.18;100.00;96109.66;4989766;28;20042;-73
2023/04/10 04:41:56;;;;;;;24.45;9.40;;;;;;;-2.12;100.00;96113.31;5008176;28;20048;-73
2023/04/10 04:44:21;;;;;;;22.50;10.02;;;;;;;-2.13;100.00;96116.84;5003711;28;20771;-73
2023/04/10 04:46:47;;;;;;;24.88;10.57;;;;;;;-2.15;100.00;96118.81;4992703;28;20037;-74
2023/04/10 04:49:12;;;;;;;26.05;9.85;;;;;;;-2.08;100.00;96124.88;4991321;28;20043;-73
2023/04/10 04:51:38;;;;;;;23.30;9.40;;;;;;;-2.10;100.00;96124.25;4999197;28;20065;-74
2023/04/10 04:54:04;;;;;;;22.25;9.23;;;;;;;-2.11;100.00;96120.06;5010135;28;20046;-72
2023/04/10 04:56:29;;;;;;;22.63;9.20;;;;;;;-2.16;100.00;96127.53;4994099;28;20788;-73
2023/04/10 04:58:55;;;;;;;22.70;9.32;;;;;;;-2.19;100.00;96120.13;5008730;28;20041;-75
2023/04/10 05:01:20;;;;;;;22.35;8.88;;;;;;;-2.17;100.00;96120.75;5002876;28;20038;-74
2023/04/10 05:03:46;;;;;;;23.30;9.32;;;;;;;-2.18;100.00;96124.31;4994249;28;20114;-74
2023/04/10 05:06:13;;;;;;;25.58;9.27;;;;;;;-2.10;100.00;96124.25;5001287;28;20049;-74
2023/04/10 05:08:38;;;;;;;23.80;9.43;;;;;;;-2.03;100.00;96126.94;4973618;28;20042;-75
2023/04/10 05:11:04;;;;;;;25.30;9.75;;;;;;;-1.99;100.00;96128.97;5005744;28;20042;-74
2023/04/10 05:13:30;;;;;;;24.63;10.13;;;;;;;-1.99;100.00;96128.97;5013583;28;20773;-74
2023/04/10 05:15:55;;;;;;;22.02;9.30;;;;;;;-2.02;100.00;96124.19;5002333;28;20042;-73
2023/04/10 05:18:22;;;;;;;24.52;9.20;;;;;;;-2.01;100.00;96136.09;5001137;28;20035;-73
2023/04/10 05:20:48;;;;;;;25.50;10.60;;;;;;;-1.87;100.00;96120.81;4975174;28;20042;-71
2023/04/10 05:23:15;;;;;;;22.17;9.65;;;;;;;-1.83;100.00;96119.50;5002917;28;20034;-72
2023/04/10 05:25:40;;;;;;;23.45;9.10;;;;;;;-1.80;100.00;96124.31;4972352;28;20073;-73
2023/04/10 05:28:06;;;;;;;22.95;9.13;;;;;;;-1.76;100.00;96112.66;4973807;28;20047;-76
2023/04/10 05:30:32;;;;;;;32.00;9.88;;;;;;;-1.73;100.00;96112.28;4988483;28;20041;-74
2023/04/10 05:32:57;;;;;;;24.63;9.90;;;;;;;-1.67;100.00;96111.56;4996259;28;20050;-73
2023/04/10 05:35:23;;;;;;;21.95;9.32;;;;;;;-1.57;100.00;96112.13;4992424;28;20038;-73
2023/04/10 05:37:49;;;;;;;29.02;11.15;;;;;;;-1.22;100.00;96114.97;5003994;28;20034;-74
2023/04/10 05:40:14;;;;;;;27.30;10.32;;;;;;;-1.18;100.00;96124.94;5007754;28;20046;-74
2023/04/10 05:42:40;;;;;;;28.83;11.40;;;;;;;-1.09;100.00;96116.13;4979579;28;20069;-74
2023/04/10 05:45:06;;;;;;;29.55;11.05;;;;;;;-0.91;100.00;96132.00;4983537;28;20053;-74
2023/04/10 05:47:32;;;;;;;27.60;10.88;;;;;;;-0.88;100.00;96123.91;5010421;28;20038;-75
2023/04/10 05:49:57;;;;;;;28.55;11.23;;;;;;;-0.94;100.00;96129.78;4996611;28;20453;-76
2023/04/10 05:52:23;;;;;;;27.85;10.02;;;;;;;-0.88;100.00;96131.66;4994411;28;20045;-77
2023/04/10 05:54:48;;;;;;;27.65;11.48;;;;;;;-0.70;100.00;96130.47;5001740;28;20648;-76
2023/04/10 05:57:14;;;;;;;29.55;10.73;;;;;;;-0.53;100.00;96134.41;4992642;28;20054;-76
2023/04/10 05:59:40;;;;;;;25.27;10.27;;;;;;;-0.58;100.00;96135.94;4993760;28;20049;-77
2023/04/10 06:02:05;;;;;;;25.08;11.07;;;;;;;-0.25;100.00;96136.25;4999967;28;20065;-74
2023/04/10 06:04:31;;;;;;;28.70;11.10;;;;;;;-0.19;100.00;96140.72;5000191;28;20062;-75
2023/04/10 06:06:57;;;;;;;29.02;11.40;;;;;;;-0.19;100.00;96140.72;4998492;28;20038;-75
2023/04/10 06:09:22;;;;;;;28.73;11.38;;;;;;;-0.07;100.00;96142.78;5005518;28;20064;-74
2023/04/10 06:11:48;;;;;;;25.40;10.20;;;;;;;0.07;100.00;96139.31;4988515;28;20071;-77
2023/04/10 06:14:13;;;;;;;28.60;10.45;;;;;;;0.15;100.00;96141.75;5001387;28;20042;-76
2023/04/10 06:16:39;;;;;;;32.25;10.95;;;;;;;0.33;100.00;96143.06;4999051;28;20042;-77
2023/04/10 06:19:05;;;;;;;27.80;10.70;;;;;;;0.50;100.00;96148.75;4994079;28;20683;-77
2023/04/10 06:21:31;;;;;;;25.75;10.00;;;;;;;0.48;100.00;96146.38;4983833;28;20037;-74
2023/04/10 06:23:56;;;;;;;29.05;10.38;;;;;;;0.37;100.00;96149.47;4979539;28;20038;-75
2023/04/10 06:26:23;;;;;;;27.17;10.93;;;;;;;0.32;100.00;96151.84;5004234;28;20046;-75
2023/04/10 06:28:49;;;;;;;30.77;10.82;;;;;;;0.28;100.00;96145.44;5002157;28;20448;-74
2023/04/10 06:31:18;;;;;;;27.38;10.73;;;;;;;0.63;100.00;96142.88;4995284;28;20544;-75
2023/04/10 06:33:44;;;;;;;29.48;11.27;;;;;;;0.65;100.00;96143.50;4997322;28;20035;-76
2023/04/10 06:36:10;;;;;;;30.02;11.25;;;;;;;0.54;100.00;96141.44;5004199;28;20053;-75
2023/04/10 06:38:36;;;;;;;27.73;11.32;;;;;;;0.83;100.00;96138.63;5000672;28;20029;-74
2023/04/10 06:41:04;;;;;;;28.15;11.63;;;;;;;1.26;100.00;96126.41;4993824;28;20047;-74
2023/04/10 06:43:31;;;;;;;33.05;11.60;;;;;;;1.28;100.00;96125.22;4983496;28;20125;-75
2023/04/10 06:45:57;;;;;;;31.67;11.82;;;;;;;1.84;100.00;96118.94;5000907;28;20038;-75
2023/04/10 06:48:22;;;;;;;28.75;11.25;;;;;;;2.24;100.00;96124.13;5001064;28;20605;-74
2023/04/10 06:50:48;;;;;;;29.23;11.65;;;;;;;2.30;100.00;96116.50;4997928;28;20195;-74
2023/04/10 06:53:13;;;;;;;28.83;11.38;;;;;;;2.12;100.00;96115.34;5001923;28;20383;-73
2023/04/10 06:55:39;;;;;;;26.95;11.10;;;;;;;2.29;100.00;96107.16;5001538;28;20044;-75
2023/04/10 06:58:04;;;;;;;28.75;11.93;;;;;;;2.66;100.00;96104.84;5008866;28;20111;-75
2023/04/10 07:00:30;;;;;;;27.52;11.13;;;;;;;2.81;100.00;96113.22;4994917;28;20042;-73
2023/04/10 07:02:56;;;;;;;27.92;11.60;;;;;;;3.12;100.00;96114.31;5002150;28;20070;-74
2023/04/10 07:05:22;;;;;;;31.27;12.80;;;;;;;2.92;100.00;96112.56;5005113;28;20535;-76
2023/04/10 07:07:49;;;;;;;32.50;12.13;;;;;;;3.27;100.00;96114.81;5002178;28;20509;-74
2023/04/10 07:10:15;;;;;;;30.13;12.02;;;;;;;3.12;100.00;96106.50;5010503;28;20050;-75
2023/04/10 07:12:41;;;;;;;30.38;11.43;;;;;;;3.12;100.00;96106.50;4994525;28;20525;-75
2023/04/10 07:15:07;;;;;;;34.45;12.63;;;;;;;3.38;100.00;96107.38;5017608;28;20073;-75
2023/04/10 07:17:32;;;;;;;29.98;12.45;;;;;;;3.58;100.00;96097.66;4990486;28;20037;-74
2023/04/10 07:19:58;;;;;;;28.25;11.43;;;;;;;3.43;100.00;96104.94;5006820;28;20046;-73
2023/04/10 07:22:24;;;;;;;29.40;11.80;;;;;;;3.81;100.00;96107.50;5008470;28;20042;-73
2023/04/10 07:24:50;;;;;;;22.48;9.88;;;;;;;3.98;100.00;96097.34;5008772;28;20045;-73
2023/04/10 07:27:15;;;;;;;27.35;10.65;;;;;;;3.98;100.00;96113.00;4977994;28;20041;-73
2023/04/10 07:29:41;;;;;;;26.05;11.35;;;;;;;3.90;100.00;96105.44;5012393;28;20046;-73
2023/04/10 07:32:07;;;;;;;30.90;11.32;;;;;;;4.45;100.00;96111.78;5009008;28;20768;-74
2023/04/10 07:34:32;;;;;;;32.38;11.18;;;;;;;4.49;100.00;96112.94;4983048;28;20046;-73
2023/04/10 07:36:58;;;;;;;30.67;11.70;;;;;;;4.52;100.00;96107.31;4990751;28;20038;-74
2023/04/10 07:39:23;;;;;;;28.48;11.15;;;;;;;4.55;100.00;96116.50;5011723;28;20046;-76
2023/04/10 07:41:49;;;;;;;26.88;10.45;;;;;;;4.58;100.00;96116.06;5004631;28;20038;-76
2023/04/10 07:44:16;;;;;;;26.15;10.77;;;;;;;5.08;100.00;96115.13;5005531;28;20481;-76
2023/04/10 07:46:42;;;;;;;25.58;10.18;;;;;;;5.30;100.00;96108.44;5008716;28;20457;-75
2023/04/10 07:49:07;;;;;;;22.55;8.70;;;;;;;5.48;100.00;96109.41;5005368;28;20034;-75
2023/04/10 07:51:33;;;;;;;25.42;10.38;;;;;;;5.65;100.00;96109.56;5009894;28;20767;-76
2023/04/10 07:53:58;;;;;;;20.65;9.15;;;;;;;5.81;100.00;96102.91;5004991;28;20663;-73
2023/04/10 07:56:24;;;;;;;24.75;9.95;;;;;;;5.93;100.00;96105.53;5006977;28;20049;-73
2023/04/10 07:58:50;;;;;;;21.02;9.07;;;;;;;5.80;100.00;96106.53;5000582;28;20053;-75
2023/04/10 08:01:16;;;;;;;22.15;8.98;;;;;;;5.52;100.00;96100.91;4998030;28;20042;-73
2023/04/10 08:03:44;;;;;;;21.33;8.82;;;;;;;5.92;100.00;96104.75;4996911;28;20485;-73
2023/04/10 08:06:10;;;;;;;21.30;8.40;;;;;;;6.01;100.00;96108.66;5000883;28;20506;-74
2023/04/10 08:08:37;;;;;;;20.95;8.95;;;;;;;5.95;100.00;96104.31;4990413;28;20532;-73
2023/04/10 08:11:21;;;;;;;22.75;8.90;;;;;;;6.10;100.00;96100.50;5002234;28;20046;-72
2023/04/10 08:13:48;;;;;;;17.63;8.10;;;;;;;6.45;100.00;96097.09;4977649;28;20038;-73
2023/04/10 08:16:13;;;;;;;18.05;8.10;;;;;;;6.59;100.00;96099.25;4978758;28;20049;-74
2023/04/10 08:18:39;;;;;;;19.23;8.60;;;;;;;6.38;100.00;96092.78;5003567;28;20045;-73
2023/04/10 08:21:05;;;;;;;20.75;9.05;;;;;;;6.76;100.00;96091.47;4997583;28;20046;-74
2023/04/10 08:23:30;;;;;;;20.83;9.45;;;;;;;6.50;100.00;96089.34;4984332;28;20039;-76
2023/04/10 08:25:56;;;;;;;23.33;9.32;;;;;;;6.56;100.00;96093.66;5007092;28;20041;-78
2023/04/10 08:28:22;;;;;;;24.38;10.23;;;;;;;6.28;100.00;96092.56;4979253;28;20441;-74
2023/04/10 08:30:47;;;;;;;20.70;8.95;;;;;;;6.43;100.00;96094.69;4985308;28;20037;-76
2023/04/10 08:33:13;;;;;;;22.30;8.30;;;;;;;6.86;100.00;96092.72;4985485;28;20046;-76
2023/04/10 08:35:38;;;;;;;23.38;9.32;;;;;;;7.19;100.00;96091.25;4987372;28;20034;-74
2023/04/10 08:38:04;;;;;;;19.40;8.65;;;;;;;7.21;100.00;96094.44;5017320;28;20042;-76
2023/04/10 08:40:30;;;;;;;19.48;8.57;;;;;;;7.25;100.00;96090.31;5010954;28;20034;-74
2023/04/10 08:42:55;;;;;;;17.98;8.85;;;;;;;6.96;100.00;96094.75;4994002;28;20121;-75
2023/04/10 08:45:21;;;;;;;16.45;7.38;;;;;;;7.17;100.00;96093.31;5010755;28;20545;-76
2023/04/10 08:47:49;;;;;;;17.35;7.65;;;;;;;7.32;100.00;96093.59;4988066;28;20038;-75
2023/04/10 08:50:16;;;;;;;17.23;7.65;;;;;;;7.24;100.00;96091.34;4984609;28;20042;-73
2023/04/10 08:52:44;;;;;;;18.33;7.60;;;;;;;7.31;100.00;96089.38;4987582;28;20054;-74
2023/04/10 08:55:13;;;;;;;17.17;7.85;;;;;;;7.38;100.00;96090.03;5011725;28;20147;-73
2023/04/10 08:57:39;;;;;;;15.70;7.65;;;;;;;7.35;100.00;96093.13;5007581;28;20042;-73
2023/04/10 09:00:06;;;;;;;16.02;7.25;;;;;;;7.24;100.00;96093.97;4999478;28;20721;-74
2023/04/10 09:02:31;;;;;;;17.80;7.55;;;;;;;7.24;100.00;96093.97;4990226;28;20035;-73
2023/04/10 09:05:02;;;;;;;17.40;7.93;;;;;;;7.41;100.00;96094.81;5007754;28;20033;-73
2023/04/10 09:07:27;;;;;;;16.13;7.85;;;;;;;7.48;100.00;96092.03;4986669;28;20038;-73
2023/04/10 09:09:53;;;;;;;15.35;6.97;;;;;;;7.54;100.00;96095.56;5003830;28;20041;-73
2023/04/10 09:12:18;;;;;;;16.52;7.15;;;;;;;7.70;100.00;96092.19;5018565;28;20041;-73
2023/04/10 09:14:44;;;;;;;15.38;7.22;;;;;;;7.57;100.00;96087.22;5007267;28;20034;-74
2023/04/10 09:17:17;;;;;;;15.85;7.55;;;;;;;7.70;100.00;96081.69;5010196;28;20049;-74
2023/04/10 09:19:44;;;;;;;14.27;7.15;;;;;;;7.66;100.00;96075.34;5009364;28;20120;-73
2023/04/10 09:22:11;;;;;;;15.63;7.13;;;;;;;7.79;100.00;96080.28;5018186;28;20105;-74
2023/04/10 09:24:38;;;;;;;16.55;6.95;;;;;;;8.37;100.00;96072.22;4993703;28;20038;-73
2023/04/10 09:27:05;;;;;;;14.57;7.78;;;;;;;8.40;100.00;96069.13;4993728;28;20038;-74
2023/04/10 09:29:42;;;;;;;13.32;6.18;;;;;;;8.62;100.00;96065.75;5008524;28;20054;-73
2023/04/10 09:32:09;;;;;;;14.45;6.75;;;;;;;8.74;100.00;96069.06;5008965;28;20069;-74
2023/04/10 09:34:51;;;;;;;15.20;6.95;;;;;;;8.59;100.00;96061.00;4990859;28;20039;-74
2023/04/10 09:37:19;;;;;;;14.30;7.20;;;;;;;8.71;100.00;96058.28;4988965;28;20046;-72
2023/04/10 09:39:45;;;;;;;14.15;7.07;;;;;;;8.64;100.00;96053.19;5007396;28;20044;-75
2023/04/10 09:42:11;;;;;;;15.27;6.72;;;;;;;8.85;100.00;96046.38;4999869;28;20054;-73
2023/04/10 09:44:38;;;;;;;13.95;6.63;;;;;;;9.36;100.00;96043.50;5005958;28;20038;-74
2023/04/10 09:47:12;;;;;;;12.90;5.90;;;;;;;9.54;85.69;96035.28;5001473;28;20254;-74
2023/04/10 09:49:49;;;;;;;11.77;5.88;;;;;;;9.57;86.62;96038.44;4991073;28;20038;-75
2023/04/10 09:52:28;;;;;;;12.57;6.38;;;;;;;9.67;82.65;96033.28;5002340;28;20046;-75
2023/04/10 09:54:55;;;;;;;11.13;5.75;;;;;;;9.75;80.50;96024.91;4997608;28;20572;-76
2023/04/10 09:57:23;;;;;;;12.40;6.13;;;;;;;9.74;90.76;96028.59;5000625;28;20053;-77
2023/04/10 09:59:53;;;;;;;13.50;6.57;;;;;;;9.93;89.30;96025.56;4998086;28;20092;-75
2023/04/10 10:02:21;;;;;;;10.15;5.45;;;;;;;10.21;72.90;96022.63;5001744;28;20072;-75
2023/04/10 10:04:48;;;;;;;10.48;5.80;;;;;;;10.65;81.70;96028.66;5002210;28;20038;-76
2023/04/10 10:07:21;;;;;;;10.98;5.70;;;;;;;10.55;76.31;96014.41;4984119;28;20471;-76
2023/04/10 10:09:49;;;;;;;9.65;5.38;;;;;;;11.03;79.34;96011.69;5009841;28;20090;-75
2023/04/10 10:12:17;;;;;;;10.25;5.75;;;;;;;11.09;73.84;96005.38;5012863;28;20038;-75
2023/04/10 10:15:00;;;;;;;9.80;5.88;;;;;;;11.23;72.86;96000.41;5003670;28;20129;-74
2023/04/10 10:17:42;;;;;;;8.45;4.63;;;;;;;11.21;62.43;96007.00;5007969;28;20042;-74
2023/04/10 10:20:10;;;;;;;14.07;5.22;;;;;;;11.48;65.84;95998.84;5000635;28;20069;-75
2023/04/10 10:22:36;;;;;;;9.90;5.57;;;;;;;11.73;64.99;95986.72;4989474;28;20505;-74
2023/04/10 10:25:02;;;;;;;10.30;5.82;;;;;;;12.58;63.10;95991.31;5007710;28;20053;-74
2023/04/10 10:27:35;;;;;;;10.27;5.38;;;;;;;13.13;60.62;95990.53;5000840;28;20042;-73
2023/04/10 10:30:02;;;;;;;9.18;5.20;;;;;;;12.46;59.09;95988.22;5017883;28;20038;-76
2023/04/10 10:32:29;;;;;;;8.27;4.82;;;;;;;13.22;58.16;95978.34;5007408;28;20049;-76
2023/04/10 10:34:56;;;;;;;10.20;5.75;;;;;;;12.88;60.86;95973.78;5021776;28;20034;-75
2023/04/10 10:37:22;;;;;;;8.75;4.78;;;;;;;13.58;58.09;95970.19;5019695;28;20042;-75
2023/04/10 10:39:57;;;;;;;8.15;4.97;;;;;;;13.96;57.87;95970.38;5018643;28;20042;-75
2023/04/10 10:42:49;;;;;;;9.20;5.18;;;;;;;13.94;56.06;95951.34;5009351;28;20413;-75
2023/04/10 10:45:24;;;;;;;9.23;5.60;;;;;;;14.53;52.25;95961.84;5008716;28;20085;-74
2023/04/10 10:47:52;;;;;;;8.48;5.28;;;;;;;14.66;51.69;95955.88;4992942;28;20061;-75
2023/04/10 10:50:18;;;;;;;8.55;5.10;;;;;;;15.19;43.91;95951.47;5018886;28;20095;-75
2023/04/10 10:52:49;;;;;;;10.18;5.63;;;;;;;15.23;46.09;95947.19;5016326;28;20034;-75
2023/04/10 10:55:21;;;;;;;7.88;5.03;;;;;;;15.48;47.07;95955.81;5009371;28;20037;-73
2023/04/10 10:57:48;;;;;;;8.05;4.78;;;;;;;14.89;46.18;95946.31;5017687;28;20049;-73
2023/04/10 11:00:15;;;;;;;6.78;4.45;;;;;;;15.04;43.99;95940.03;4996884;28;20487;-74
2023/04/10 11:02:41;;;;;;;7.43;4.78;;;;;;;15.56;42.29;95928.63;5010557;28;20039;-75
2023/04/10 11:05:07;;;;;;;6.82;4.53;;;;;;;16.51;41.03;95932.78;4992801;28;20104;-74
2023/04/10 11:07:58;;;;;;;7.40;4.38;;;;;;;16.31;40.75;95931.31;4990861;28;20034;-75
2023/04/10 11:10:58;;;;;;;6.60;3.83;;;;;;;15.57;37.98;95922.22;5003486;28;20473;-76
2023/04/10 11:13:24;;;;;;;6.53;4.00;;;;;;;16.89;40.33;95919.25;5005436;28;20044;-76
2023/04/10 11:15:50;;;;;;;7.07;4.50;;;;;;;17.20;37.65;95907.94;5012128;28;20101;-76
2023/04/10 11:18:16;;;;;;;6.57;4.07;;;;;;;15.93;39.70;95917.13;4995028;28;20034;-75